createdAt,value
2022-08-26T00:01:19.068Z,1016.47
2022-08-26T00:11:30.325Z,1016.47
2022-08-26T00:21:37.529Z,1016.44
2022-08-26T00:31:45.350Z,1016.39
2022-08-26T00:41:52.168Z,1016.30
2022-08-26T00:51:58.693Z,1016.26
2022-08-26T01:02:06.678Z,1016.24
2022-08-26T01:12:21.995Z,1016.22
2022-08-26T01:22:28.842Z,1016.21
2022-08-26T01:32:35.195Z,1016.20
2022-08-26T01:42:41.614Z,1016.18
2022-08-26T01:52:51.674Z,1016.13
2022-08-26T02:02:59.624Z,1016.03
2022-08-26T02:13:05.857Z,1016.10
2022-08-26T02:23:12.019Z,1016.02
2022-08-26T02:33:18.317Z,1016.00
2022-08-26T02:43:31.285Z,1016.03
2022-08-26T02:53:36.378Z,1015.93
2022-08-26T03:03:42.704Z,1015.90
2022-08-26T03:13:49.122Z,1015.82
2022-08-26T03:23:55.827Z,1015.75
2022-08-26T03:34:05.473Z,1015.71
2022-08-26T03:44:11.737Z,1015.68
2022-08-26T03:54:17.867Z,1015.65
2022-08-26T04:04:24.565Z,1015.62
2022-08-26T04:14:30.969Z,1015.59
2022-08-26T04:24:38.641Z,1015.70
2022-08-26T04:34:44.950Z,1015.61
2022-08-26T04:44:51.367Z,1015.64
2022-08-26T04:54:57.276Z,1015.51
2022-08-26T05:05:03.516Z,1015.53
2022-08-26T05:15:10.489Z,1015.66
2022-08-26T05:25:16.795Z,1015.74
2022-08-26T05:35:23.038Z,1015.80
2022-08-26T05:45:29.856Z,1015.80
2022-08-26T05:55:36.068Z,1015.84
2022-08-26T06:05:45.441Z,1015.77
2022-08-26T06:15:51.707Z,1015.72
2022-08-26T06:25:58.254Z,1015.75
2022-08-26T06:36:04.386Z,1015.68
2022-08-26T06:46:10.654Z,1015.71
2022-08-26T06:56:18.414Z,1015.67
2022-08-26T07:06:25.353Z,1015.64
2022-08-26T07:16:32.091Z,1015.61
2022-08-26T07:26:39.296Z,1015.55
2022-08-26T07:36:50.337Z,1015.50
2022-08-26T07:46:56.452Z,1015.47
2022-08-26T07:57:05.039Z,1015.45
2022-08-26T08:07:14.752Z,1015.39
2022-08-26T08:17:20.999Z,1015.37
2022-08-26T08:27:28.669Z,1015.34
2022-08-26T08:37:36.320Z,1015.24
2022-08-26T08:47:44.625Z,1015.11
2022-08-26T08:57:53.577Z,1015.06
2022-08-26T09:08:00.137Z,1015.06
2022-08-26T09:18:06.366Z,1014.95
2022-08-26T09:28:12.880Z,1014.91
2022-08-26T09:38:19.618Z,1014.88
2022-08-26T09:48:26.605Z,1014.77
2022-08-26T09:58:33.099Z,1014.65
2022-08-26T10:08:39.770Z,1014.44
2022-08-26T10:18:45.828Z,1014.26
2022-08-26T10:28:52.559Z,1014.04
2022-08-26T10:38:59.094Z,1013.84
2022-08-26T10:49:06.526Z,1013.67
2022-08-26T10:59:13.261Z,1013.59
2022-08-26T11:09:19.698Z,1013.45
2022-08-26T11:19:56.821Z,1013.36
2022-08-26T11:29:42.594Z,1013.27
2022-08-26T11:39:54.821Z,1013.12
2022-08-26T11:50:00.522Z,1013.24
2022-08-26T12:00:07.431Z,1013.26
2022-08-26T12:10:17.142Z,1013.15
2022-08-26T12:20:23.592Z,1013.35
2022-08-26T12:30:29.894Z,1013.58
2022-08-26T12:40:37.823Z,1013.93
2022-08-26T12:50:44.650Z,1013.72
2022-08-26T13:00:50.959Z,1013.95
2022-08-26T13:10:57.286Z,1013.72
2022-08-26T13:21:03.706Z,1014.12
2022-08-26T13:31:11.423Z,1013.26
2022-08-26T13:41:18.358Z,1013.32
2022-08-26T13:51:29.452Z,1013.12
2022-08-26T14:01:36.501Z,1013.01
2022-08-26T14:11:50.761Z,1013.27
2022-08-26T14:21:55.854Z,1013.93
2022-08-26T14:32:03.063Z,1013.77
2022-08-26T14:42:10.344Z,1013.94
2022-08-26T14:52:17.908Z,1013.80
2022-08-26T15:02:33.581Z,1013.29
2022-08-26T15:12:36.890Z,1012.96
2022-08-26T15:22:43.449Z,1012.98
2022-08-26T15:32:50.384Z,1012.96
2022-08-26T15:43:11.287Z,1012.98
2022-08-26T15:53:09.103Z,1012.67
2022-08-26T16:03:16.384Z,1012.38
2022-08-26T16:13:22.901Z,1012.52
2022-08-26T16:23:29.352Z,1012.85
2022-08-26T16:33:36.443Z,1012.45
2022-08-26T16:43:44.443Z,1012.49
2022-08-26T16:53:51.895Z,1012.68
2022-08-26T17:03:58.853Z,1012.66
2022-08-26T17:14:06.029Z,1012.79
2022-08-26T17:24:12.711Z,1012.84
2022-08-26T17:34:18.776Z,1012.89
2022-08-26T17:44:25.482Z,1012.77
2022-08-26T17:54:32.408Z,1012.61
2022-08-26T18:04:39.819Z,1012.56
2022-08-26T18:14:46.879Z,1012.50
2022-08-26T18:24:58.689Z,1012.59
2022-08-26T18:35:05.633Z,1012.42
2022-08-26T18:45:16.385Z,1012.44
2022-08-26T18:55:23.118Z,1012.25
2022-08-26T19:05:30.467Z,1012.29
2022-08-26T19:15:36.620Z,1012.36
2022-08-26T19:25:43.429Z,1012.65
2022-08-26T19:35:51.852Z,1012.85
2022-08-26T19:45:58.652Z,1012.91
2022-08-26T19:56:05.351Z,1013.03
2022-08-26T20:06:12.661Z,1012.99
2022-08-26T20:16:20.176Z,1013.15
2022-08-26T20:26:27.034Z,1013.40
2022-08-26T20:36:33.925Z,1013.35
2022-08-26T20:46:41.149Z,1013.44
2022-08-26T20:56:48.624Z,1013.42
2022-08-26T21:06:55.603Z,1013.61
2022-08-26T21:17:02.953Z,1013.45
2022-08-26T21:27:09.792Z,1013.36
2022-08-26T21:37:17.175Z,1013.20
2022-08-26T21:47:24.447Z,1013.12
2022-08-26T21:57:31.900Z,1013.23
2022-08-26T22:07:38.983Z,1013.37
2022-08-26T22:17:45.743Z,1013.13
2022-08-26T22:27:52.101Z,1012.83
2022-08-26T22:37:58.785Z,1012.61
2022-08-26T22:48:05.087Z,1012.34
2022-08-26T22:58:12.514Z,1012.31
2022-08-26T23:08:19.011Z,1012.58
2022-08-26T23:18:26.134Z,1012.60
2022-08-26T23:28:33.731Z,1012.45
2022-08-26T23:38:40.823Z,1012.67
2022-08-26T23:48:47.588Z,1012.77
2022-08-26T23:58:53.956Z,1012.73
